createdAt,value
2023-05-08T05:03:18.010Z,25.00
2023-05-08T05:04:18.961Z,25.00
2023-05-08T05:05:18.957Z,25.00
2023-05-08T05:06:17.971Z,25.00
2023-05-08T05:07:19.008Z,25.00
2023-05-08T05:08:19.047Z,25.00
2023-05-08T05:09:19.089Z,0.00
2023-05-08T05:10:19.112Z,0.00
2023-05-08T05:11:18.076Z,0.00
2023-05-08T05:12:19.118Z,0.00
2023-05-08T05:13:18.274Z,0.00
2023-05-08T05:14:19.244Z,0.00
2023-05-08T05:15:18.314Z,0.00
2023-05-08T05:16:18.441Z,0.00
2023-05-08T05:17:18.413Z,0.00
2023-05-08T05:18:19.445Z,0.00
2023-05-08T05:19:19.538Z,0.00
2023-05-08T05:20:18.593Z,0.00
2023-05-08T05:21:18.622Z,0.00
2023-05-08T05:22:19.679Z,0.00
2023-05-08T05:23:19.705Z,0.00
2023-05-08T05:24:19.755Z,0.00
2023-05-08T05:25:19.753Z,0.00
2023-05-08T05:26:19.726Z,0.00
2023-05-08T05:27:21.284Z,0.00
2023-05-08T05:28:19.970Z,0.00
2023-05-08T05:29:20.053Z,0.00
2023-05-08T05:30:20.128Z,0.00
2023-05-08T05:31:20.140Z,0.00
2023-05-08T05:32:20.269Z,0.00
2023-05-08T05:33:20.187Z,0.00
2023-05-08T05:34:20.194Z,0.00
2023-05-08T05:35:19.322Z,0.00
2023-05-08T05:36:19.305Z,0.00
2023-05-08T05:37:19.302Z,0.00
2023-05-08T05:38:20.390Z,3.25
2023-05-08T05:39:20.387Z,26.48
2023-05-08T05:40:19.410Z,28.07
2023-05-08T05:41:20.425Z,27.02
2023-05-08T05:42:19.480Z,27.14
2023-05-08T05:43:20.636Z,25.86
2023-05-08T05:44:19.436Z,31.14
2023-05-08T05:45:20.442Z,25.01
2023-05-08T05:46:19.465Z,27.50
2023-05-08T05:47:20.465Z,28.41
2023-05-08T05:48:20.459Z,25.00
2023-05-08T05:49:20.453Z,26.83
2023-05-08T05:50:20.455Z,26.20
2023-05-08T05:51:19.505Z,26.70
2023-05-08T05:52:19.653Z,25.03
2023-05-08T05:53:20.505Z,25.06
2023-05-08T05:54:20.453Z,28.31
2023-05-08T05:55:19.590Z,29.74
2023-05-08T05:56:19.583Z,30.34
2023-05-08T05:57:19.512Z,28.33
2023-05-08T05:58:20.592Z,35.42
2023-05-08T05:59:20.499Z,30.45
2023-05-08T06:00:20.772Z,40.68
2023-05-08T06:01:20.538Z,26.15
2023-05-08T06:02:20.652Z,34.39
2023-05-08T06:03:20.633Z,37.28
2023-05-08T06:04:20.680Z,22.88
2023-05-08T06:05:20.643Z,22.03
2023-05-08T06:06:20.553Z,28.55
2023-05-08T06:07:20.627Z,27.10
2023-05-08T06:08:19.648Z,25.00
2023-05-08T06:09:19.724Z,25.00
2023-05-08T06:10:20.769Z,25.00
2023-05-08T06:11:19.804Z,25.84
2023-05-08T06:12:20.838Z,25.22
2023-05-08T06:13:20.899Z,28.61
2023-05-08T06:14:19.933Z,26.69
2023-05-08T06:15:21.014Z,27.08
2023-05-08T06:16:21.088Z,25.90
2023-05-08T06:17:20.077Z,26.91
2023-05-08T06:18:20.129Z,29.26
2023-05-08T06:19:20.230Z,29.26
2023-05-08T06:20:20.275Z,28.25
2023-05-08T06:21:20.314Z,23.54
2023-05-08T06:22:20.344Z,25.00
2023-05-08T06:23:20.357Z,30.49
2023-05-08T06:24:21.413Z,29.47
2023-05-08T06:25:20.431Z,33.54
2023-05-08T06:26:23.228Z,26.64
2023-05-08T06:27:21.479Z,32.01
2023-05-08T06:28:21.453Z,28.98
2023-05-08T06:29:20.545Z,31.86
2023-05-08T06:30:21.478Z,28.95
2023-05-08T06:31:20.487Z,27.07
2023-05-08T06:32:21.512Z,35.60
2023-05-08T06:33:21.432Z,27.42
2023-05-08T06:34:21.418Z,33.56
2023-05-08T06:35:21.543Z,25.81
2023-05-08T06:36:20.421Z,30.61
2023-05-08T06:37:20.405Z,26.83
2023-05-08T06:38:20.415Z,25.00
2023-05-08T06:39:21.543Z,25.00
2023-05-08T06:40:20.482Z,25.99
2023-05-08T06:41:21.354Z,28.62
2023-05-08T06:42:20.357Z,29.53
2023-05-08T06:43:21.446Z,35.58
2023-05-08T06:44:20.364Z,36.36
2023-05-08T06:45:20.340Z,40.89
2023-05-08T06:46:20.352Z,43.88
2023-05-08T06:47:20.399Z,39.03
2023-05-08T06:48:20.333Z,40.80
2023-05-08T06:49:20.344Z,43.25
2023-05-08T06:50:21.305Z,45.26
2023-05-08T06:51:21.429Z,51.78
2023-05-08T06:52:20.450Z,56.81
2023-05-08T06:53:21.563Z,54.08
2023-05-08T06:54:20.563Z,48.82
2023-05-08T06:55:21.683Z,41.36
2023-05-08T06:56:20.655Z,38.25
2023-05-08T06:57:20.774Z,47.78
2023-05-08T06:58:20.944Z,40.80
2023-05-08T06:59:20.812Z,50.34
2023-05-08T07:00:21.831Z,42.13
2023-05-08T07:01:20.844Z,41.48
2023-05-08T07:02:21.919Z,45.74
2023-05-08T07:03:20.738Z,40.13
2023-05-08T07:04:20.744Z,41.88
2023-05-08T07:05:20.862Z,42.84
2023-05-08T07:06:20.737Z,39.28
2023-05-08T07:07:21.748Z,41.66
2023-05-08T07:08:20.713Z,40.18
2023-05-08T07:09:20.718Z,42.64
2023-05-08T07:10:21.739Z,43.11
2023-05-08T07:11:20.741Z,42.01
2023-05-08T07:12:20.734Z,43.12
2023-05-08T07:13:21.909Z,40.97
2023-05-08T07:14:21.036Z,33.74
2023-05-08T07:15:26.085Z,32.05
2023-05-08T07:16:22.277Z,32.47
2023-05-08T07:17:20.782Z,32.84
2023-05-08T07:18:21.818Z,32.54
2023-05-08T07:19:22.384Z,35.66
2023-05-08T07:20:22.058Z,36.54
2023-05-08T07:21:21.803Z,34.45
2023-05-08T07:22:21.053Z,41.42
2023-05-08T07:23:21.789Z,33.00
2023-05-08T07:24:20.781Z,35.00
2023-05-08T07:25:20.739Z,37.02
2023-05-08T07:26:21.746Z,37.47
2023-05-08T07:27:21.749Z,46.49
2023-05-08T07:28:21.711Z,39.77
2023-05-08T07:29:21.727Z,41.43
2023-05-08T07:30:20.701Z,43.47
2023-05-08T07:31:21.786Z,42.88
2023-05-08T07:32:21.798Z,39.50
2023-05-08T07:33:20.898Z,36.15
2023-05-08T07:34:21.885Z,41.85
2023-05-08T07:35:21.008Z,40.54
2023-05-08T07:36:22.016Z,37.24
2023-05-08T07:37:22.121Z,40.45
2023-05-08T07:38:21.116Z,40.51
2023-05-08T07:39:22.203Z,46.38
2023-05-08T07:40:21.235Z,40.83
2023-05-08T07:41:21.330Z,47.27
2023-05-08T07:42:21.312Z,51.29
2023-05-08T07:43:22.404Z,46.48
2023-05-08T07:44:22.386Z,56.44
2023-05-08T07:45:21.439Z,58.11
2023-05-08T07:46:21.523Z,49.06
2023-05-08T07:47:21.547Z,56.25
2023-05-08T07:48:21.588Z,61.06
2023-05-08T07:49:21.660Z,67.76
2023-05-08T07:50:22.286Z,72.13
2023-05-08T07:51:22.772Z,78.52
2023-05-08T07:52:21.816Z,84.35
2023-05-08T07:53:23.044Z,92.14
2023-05-08T07:54:21.907Z,94.63
2023-05-08T07:55:23.106Z,95.73
2023-05-08T07:56:21.987Z,93.22
2023-05-08T07:57:22.051Z,94.33
2023-05-08T07:58:23.902Z,95.43
2023-05-08T07:59:22.124Z,90.89
2023-05-08T08:00:23.430Z,79.94
2023-05-08T08:01:23.168Z,84.95
2023-05-08T08:02:22.324Z,90.01
2023-05-08T08:03:23.392Z,89.65
2023-05-08T08:04:22.277Z,84.56
2023-05-08T08:05:23.292Z,93.97
2023-05-08T08:06:23.362Z,92.94
2023-05-08T08:07:23.488Z,92.61
2023-05-08T08:08:22.443Z,84.19
2023-05-08T08:09:23.384Z,89.81
2023-05-08T08:10:23.409Z,90.95
2023-05-08T08:11:23.487Z,97.42
2023-05-08T08:12:23.494Z,95.50
2023-05-08T08:13:22.548Z,99.22
2023-05-08T08:14:22.513Z,111.69
2023-05-08T08:15:22.667Z,102.25
2023-05-08T08:16:22.576Z,100.08
2023-05-08T08:17:24.354Z,90.38
2023-05-08T08:18:22.661Z,76.91
2023-05-08T08:19:22.644Z,69.28
2023-05-08T08:20:22.557Z,74.95
2023-05-08T08:21:22.572Z,80.35
2023-05-08T08:22:22.577Z,80.51
2023-05-08T08:23:23.715Z,72.90
2023-05-08T08:24:22.613Z,80.74
2023-05-08T08:25:23.620Z,79.26
2023-05-08T08:26:22.558Z,70.91
2023-05-08T08:27:22.570Z,71.78
2023-05-08T08:28:23.519Z,64.06
2023-05-08T08:29:22.522Z,64.33
2023-05-08T08:30:22.547Z,71.99
2023-05-08T08:31:22.649Z,85.38
2023-05-08T08:32:23.631Z,91.13
2023-05-08T08:33:22.498Z,80.71
2023-05-08T08:34:22.445Z,83.43
2023-05-08T08:35:22.499Z,74.17
2023-05-08T08:36:22.439Z,68.68
2023-05-08T08:37:23.464Z,54.39
2023-05-08T08:38:22.463Z,54.90
2023-05-08T08:39:23.500Z,74.27
2023-05-08T08:40:22.476Z,75.33
2023-05-08T08:41:23.891Z,72.80
2023-05-08T08:42:23.432Z,88.01
2023-05-08T08:43:23.287Z,98.19
2023-05-08T08:44:23.442Z,108.42
2023-05-08T08:45:22.415Z,125.71
2023-05-08T08:46:22.512Z,124.11
2023-05-08T08:47:23.590Z,136.69
2023-05-08T08:48:22.646Z,141.62
2023-05-08T08:49:23.552Z,140.31
2023-05-08T08:50:22.593Z,146.73
2023-05-08T08:51:22.431Z,153.35
2023-05-08T08:52:23.328Z,144.39
2023-05-08T08:53:23.404Z,138.48
2023-05-08T08:54:22.312Z,147.15
2023-05-08T08:55:23.364Z,145.03
2023-05-08T08:56:23.286Z,140.24
2023-05-08T08:57:23.298Z,149.39
2023-05-08T08:58:23.320Z,146.37
2023-05-08T08:59:24.338Z,151.70
2023-05-08T09:00:22.383Z,153.80
2023-05-08T09:01:23.548Z,143.37
2023-05-08T09:02:23.903Z,150.74
2023-05-08T09:03:23.968Z,146.76
2023-05-08T09:04:22.845Z,146.10
2023-05-08T09:05:22.667Z,151.36
2023-05-08T09:06:24.199Z,150.56
2023-05-08T09:07:23.780Z,156.80
2023-05-08T09:08:24.046Z,152.05
2023-05-08T09:09:22.971Z,114.01
2023-05-08T09:10:23.996Z,125.23
2023-05-08T09:11:24.021Z,124.32
2023-05-08T09:12:24.195Z,137.09
2023-05-08T09:13:23.195Z,135.98
2023-05-08T09:14:23.370Z,141.32
2023-05-08T09:15:23.305Z,145.61
2023-05-08T09:16:24.363Z,144.60
2023-05-08T09:17:23.381Z,154.47
2023-05-08T09:18:24.423Z,156.23
2023-05-08T09:19:26.326Z,160.06
2023-05-08T09:20:23.483Z,160.24
2023-05-08T09:21:24.488Z,160.68
2023-05-08T09:22:24.497Z,160.64
2023-05-08T09:23:24.440Z,163.52
2023-05-08T09:24:24.449Z,174.04
2023-05-08T09:25:23.475Z,170.73
2023-05-08T09:26:23.873Z,176.51
2023-05-08T09:27:24.421Z,180.37
2023-05-08T09:28:24.439Z,185.69
2023-05-08T09:29:24.433Z,185.11
2023-05-08T09:30:24.443Z,197.45
2023-05-08T09:31:24.833Z,195.98
2023-05-08T09:32:23.422Z,207.02
2023-05-08T09:33:24.377Z,205.96
2023-05-08T09:34:24.381Z,208.42
2023-05-08T09:35:23.747Z,214.72
2023-05-08T09:36:23.350Z,218.80
2023-05-08T09:37:23.356Z,217.58
2023-05-08T09:38:24.515Z,226.54
2023-05-08T09:39:23.373Z,223.44
2023-05-08T09:40:24.329Z,219.07
2023-05-08T09:41:23.329Z,221.63
2023-05-08T09:42:24.505Z,221.36
2023-05-08T09:43:24.360Z,220.78
2023-05-08T09:44:23.568Z,222.04
2023-05-08T09:45:23.304Z,219.01
2023-05-08T09:46:24.520Z,219.93
2023-05-08T09:47:24.427Z,218.62
2023-05-08T09:48:24.311Z,210.57
2023-05-08T09:49:23.271Z,196.28
2023-05-08T09:50:24.292Z,169.61
2023-05-08T09:51:24.437Z,144.61
2023-05-08T09:52:23.254Z,133.85
2023-05-08T09:53:24.276Z,119.40
2023-05-08T09:54:24.231Z,102.64
2023-05-08T09:55:24.210Z,108.28
2023-05-08T09:56:24.220Z,109.20
2023-05-08T09:57:23.227Z,110.97
2023-05-08T09:58:23.211Z,118.23
2023-05-08T09:59:23.215Z,122.74
2023-05-08T10:00:23.209Z,125.85
2023-05-08T10:01:23.232Z,120.56
2023-05-08T10:02:23.257Z,117.76
2023-05-08T10:03:23.321Z,122.13
2023-05-08T10:04:24.341Z,118.63
2023-05-08T10:05:23.391Z,117.16
2023-05-08T10:06:24.457Z,120.43
2023-05-08T10:07:24.634Z,128.68
2023-05-08T10:08:23.582Z,98.05
2023-05-08T10:09:23.616Z,85.02
2023-05-08T10:10:23.653Z,87.88
2023-05-08T10:11:23.829Z,82.70
2023-05-08T10:12:24.727Z,89.42
2023-05-08T10:13:24.745Z,72.95
2023-05-08T10:14:23.705Z,59.07
2023-05-08T10:15:24.721Z,52.47
2023-05-08T10:16:23.769Z,50.14
2023-05-08T10:17:24.749Z,60.13
2023-05-08T10:18:24.780Z,72.28
2023-05-08T10:19:23.763Z,70.72
2023-05-08T10:20:24.801Z,61.96
2023-05-08T10:21:24.774Z,46.39
2023-05-08T10:22:23.797Z,37.79
2023-05-08T10:23:24.941Z,37.08
2023-05-08T10:24:23.792Z,29.73
2023-05-08T10:25:24.826Z,29.48
2023-05-08T10:26:23.837Z,27.49
2023-05-08T10:27:24.863Z,25.00
2023-05-08T10:28:24.901Z,27.98
2023-05-08T10:29:23.939Z,28.82
2023-05-08T10:30:23.961Z,30.27
2023-05-08T10:31:25.021Z,46.97
2023-05-08T10:32:24.059Z,64.50
2023-05-08T10:33:25.047Z,64.60
2023-05-08T10:34:24.080Z,75.83
2023-05-08T10:35:25.069Z,50.04
2023-05-08T10:36:25.072Z,56.92
2023-05-08T10:37:25.063Z,51.13
2023-05-08T10:38:24.101Z,51.83
2023-05-08T10:39:25.283Z,58.48
2023-05-08T10:40:24.201Z,59.63
2023-05-08T10:41:24.347Z,44.90
2023-05-08T10:42:24.245Z,41.12
2023-05-08T10:43:24.230Z,40.49
2023-05-08T10:44:25.261Z,29.86
2023-05-08T10:45:24.188Z,17.02
2023-05-08T10:46:24.290Z,45.58
2023-05-08T10:47:25.417Z,31.55
2023-05-08T10:48:24.436Z,41.11
2023-05-08T10:49:24.389Z,52.39
2023-05-08T10:50:25.506Z,52.24
2023-05-08T10:51:24.507Z,44.37
2023-05-08T10:52:24.576Z,53.91
2023-05-08T10:53:24.641Z,80.44
2023-05-08T10:54:24.687Z,66.88
2023-05-08T10:55:25.691Z,78.61
2023-05-08T10:56:25.649Z,70.86
2023-05-08T10:57:25.586Z,76.05
2023-05-08T10:58:25.630Z,61.05
2023-05-08T10:59:24.689Z,73.75
2023-05-08T11:00:24.674Z,53.23
2023-05-08T11:01:25.773Z,53.19
2023-05-08T11:02:24.758Z,48.51
2023-05-08T11:03:31.296Z,52.18
2023-05-08T11:04:25.751Z,45.26
2023-05-08T11:05:25.801Z,44.25
2023-05-08T11:06:24.680Z,63.47
2023-05-08T11:07:25.730Z,72.72
2023-05-08T11:08:25.639Z,56.86
2023-05-08T11:09:25.700Z,54.82
2023-05-08T11:10:25.656Z,79.95
2023-05-08T11:11:25.692Z,112.79
2023-05-08T11:12:24.709Z,121.93
2023-05-08T11:13:24.713Z,111.89
2023-05-08T11:14:24.673Z,130.42
2023-05-08T11:15:25.805Z,141.00
2023-05-08T11:16:24.694Z,137.71
2023-05-08T11:17:25.701Z,155.54
2023-05-08T11:18:28.009Z,154.72
2023-05-08T11:19:25.726Z,155.64
2023-05-08T11:20:24.761Z,159.61
2023-05-08T11:21:24.862Z,166.58
2023-05-08T11:22:24.904Z,178.36
2023-05-08T11:23:24.919Z,198.80
2023-05-08T11:24:25.027Z,200.22
2023-05-08T11:25:25.021Z,200.38
2023-05-08T11:26:26.145Z,209.48
2023-05-08T11:27:25.205Z,210.59
2023-05-08T11:28:25.188Z,215.51
2023-05-08T11:29:25.204Z,217.59
2023-05-08T11:30:25.237Z,211.62
2023-05-08T11:31:26.385Z,218.18
2023-05-08T11:32:25.290Z,216.38
2023-05-08T11:33:25.291Z,220.70
2023-05-08T11:34:26.340Z,225.72
2023-05-08T11:35:26.412Z,228.57
2023-05-08T11:36:26.409Z,232.81
2023-05-08T11:37:25.459Z,227.86
2023-05-08T11:38:25.424Z,232.40
2023-05-08T11:39:25.425Z,235.73
2023-05-08T11:40:25.408Z,237.16
2023-05-08T11:41:25.496Z,239.49
2023-05-08T11:42:25.553Z,237.52
2023-05-08T11:43:26.511Z,241.06
2023-05-08T11:44:25.427Z,239.64
2023-05-08T11:45:25.448Z,236.25
2023-05-08T11:46:26.576Z,235.78
2023-05-08T11:47:26.570Z,235.57
2023-05-08T11:48:25.529Z,232.76
2023-05-08T11:49:29.013Z,235.25
2023-05-08T11:50:26.513Z,235.25
2023-05-08T11:51:26.438Z,235.22
2023-05-08T11:52:25.519Z,233.70
2023-05-08T11:53:25.495Z,235.07
2023-05-08T11:54:25.522Z,233.95
2023-05-08T11:55:25.447Z,231.53
2023-05-08T11:56:25.442Z,230.93
2023-05-08T11:57:25.468Z,235.81
2023-05-08T11:58:25.507Z,232.36
2023-05-08T11:59:25.410Z,226.72
2023-05-08T12:00:25.423Z,220.38
2023-05-08T12:01:25.425Z,188.86
2023-05-08T12:02:26.432Z,186.39
2023-05-08T12:03:25.755Z,191.94
2023-05-08T12:04:26.501Z,209.94
2023-05-08T12:05:25.350Z,214.81
2023-05-08T12:06:25.410Z,217.07
2023-05-08T12:07:25.352Z,214.85
2023-05-08T12:08:25.497Z,219.54
2023-05-08T12:09:26.418Z,214.79
2023-05-08T12:10:25.349Z,196.04
2023-05-08T12:11:26.368Z,204.26
2023-05-08T12:12:25.455Z,184.40
2023-05-08T12:13:25.580Z,179.27
2023-05-08T12:14:26.315Z,190.41
2023-05-08T12:15:25.300Z,172.80
2023-05-08T12:16:26.411Z,152.96
2023-05-08T12:17:25.463Z,185.29
2023-05-08T12:18:25.320Z,295.93
2023-05-08T12:19:26.330Z,246.23
2023-05-08T12:20:25.356Z,222.34
2023-05-08T12:21:25.395Z,230.58
2023-05-08T12:22:25.456Z,255.66
2023-05-08T12:23:25.400Z,250.00
2023-05-08T12:24:26.549Z,250.00
2023-05-08T12:25:25.575Z,249.82
2023-05-08T12:26:25.565Z,246.43
2023-05-08T12:27:26.595Z,250.00
2023-05-08T12:28:25.642Z,246.65
2023-05-08T12:29:25.694Z,240.35
2023-05-08T12:30:25.628Z,243.56
2023-05-08T12:31:25.827Z,240.65
2023-05-08T12:32:29.021Z,237.65
2023-05-08T12:33:25.760Z,247.44
2023-05-08T12:34:25.684Z,248.92
2023-05-08T12:35:25.728Z,249.54
2023-05-08T12:36:26.743Z,239.77
2023-05-08T12:37:25.710Z,240.09
2023-05-08T12:38:25.636Z,243.52
2023-05-08T12:39:26.621Z,239.66
2023-05-08T12:40:26.601Z,240.27
2023-05-08T12:41:25.586Z,243.83
2023-05-08T12:42:26.580Z,240.57
2023-05-08T12:43:26.593Z,239.92
2023-05-08T12:44:26.567Z,243.92
2023-05-08T12:45:25.574Z,241.56
2023-05-08T12:46:25.599Z,239.67
2023-05-08T12:47:26.693Z,240.09
2023-05-08T12:48:26.544Z,240.05
2023-05-08T12:49:26.533Z,240.56
2023-05-08T12:50:25.534Z,240.50
2023-05-08T12:51:26.532Z,238.23
2023-05-08T12:52:25.530Z,238.59
2023-05-08T12:53:26.519Z,233.30
2023-05-08T12:54:25.487Z,238.75
2023-05-08T12:55:26.556Z,237.12
2023-05-08T12:56:25.485Z,234.12
2023-05-08T12:57:26.484Z,234.96
2023-05-08T12:58:26.559Z,234.14
2023-05-08T12:59:25.482Z,230.87
2023-05-08T13:00:25.449Z,230.63
2023-05-08T13:01:25.469Z,233.12
2023-05-08T13:02:25.512Z,230.88
2023-05-08T13:03:26.745Z,234.04
2023-05-08T13:04:26.512Z,230.95
2023-05-08T13:05:25.421Z,231.93
2023-05-08T13:06:25.423Z,232.16
2023-05-08T13:07:25.399Z,230.52
2023-05-08T13:08:25.401Z,229.72
2023-05-08T13:09:25.396Z,232.02
2023-05-08T13:10:26.683Z,228.70
2023-05-08T13:11:25.376Z,233.32
2023-05-08T13:12:26.372Z,229.42
2023-05-08T13:13:26.530Z,230.21
2023-05-08T13:14:26.355Z,224.58
2023-05-08T13:15:26.363Z,225.60
2023-05-08T13:16:25.430Z,225.89
2023-05-08T13:17:25.367Z,225.85
2023-05-08T13:18:26.316Z,225.45
2023-05-08T13:19:26.458Z,227.14
2023-05-08T13:20:25.379Z,223.92
2023-05-08T13:21:27.819Z,226.59
2023-05-08T13:22:25.307Z,223.61
2023-05-08T13:23:26.309Z,224.43
2023-05-08T13:24:26.397Z,229.21
2023-05-08T13:25:26.263Z,226.61
2023-05-08T13:26:25.325Z,222.02
2023-05-08T13:27:26.989Z,225.32
2023-05-08T13:28:26.331Z,222.61
2023-05-08T13:29:25.250Z,221.69
2023-05-08T13:30:25.243Z,223.83
2023-05-08T13:31:25.339Z,222.21
2023-05-08T13:32:26.257Z,222.37
2023-05-08T13:33:25.260Z,219.75
2023-05-08T13:34:26.258Z,218.88
2023-05-08T13:35:25.325Z,222.93
2023-05-08T13:36:25.227Z,218.81
2023-05-08T13:37:26.200Z,216.80
2023-05-08T13:38:26.216Z,217.13
2023-05-08T13:39:25.180Z,215.89
2023-05-08T13:40:25.188Z,218.98
2023-05-08T13:41:26.203Z,219.12
2023-05-08T13:42:26.160Z,215.22
2023-05-08T13:43:25.264Z,214.58
2023-05-08T13:44:26.154Z,211.76
2023-05-08T13:45:26.135Z,216.64
2023-05-08T13:46:25.188Z,215.72
2023-05-08T13:47:25.204Z,213.50
2023-05-08T13:48:26.133Z,214.07
2023-05-08T13:49:26.121Z,213.96
2023-05-08T13:50:26.100Z,213.86
2023-05-08T13:51:25.243Z,211.03
2023-05-08T13:52:26.082Z,213.50
2023-05-08T13:53:26.103Z,210.74
2023-05-08T13:54:25.083Z,212.17
2023-05-08T13:55:26.064Z,211.33
2023-05-08T13:56:26.065Z,211.47
2023-05-08T13:57:26.051Z,211.38
2023-05-08T13:58:26.062Z,211.41
2023-05-08T13:59:26.055Z,208.43
2023-05-08T14:00:28.084Z,207.78
2023-05-08T14:01:27.169Z,210.63
2023-05-08T14:02:26.278Z,210.68
2023-05-08T14:03:26.125Z,207.53
2023-05-08T14:04:26.009Z,206.79
2023-05-08T14:05:25.032Z,207.50
2023-05-08T14:06:25.002Z,206.75
2023-05-08T14:07:25.097Z,206.20
2023-05-08T14:08:26.048Z,204.27
2023-05-08T14:09:24.992Z,202.64
2023-05-08T14:10:25.971Z,202.38
2023-05-08T14:11:24.969Z,202.68
2023-05-08T14:12:25.984Z,204.67
2023-05-08T14:13:26.081Z,202.15
2023-05-08T14:14:25.931Z,205.07
2023-05-08T14:15:31.835Z,201.62
2023-05-08T14:16:25.962Z,201.81
2023-05-08T14:17:25.944Z,202.21
2023-05-08T14:18:25.919Z,202.46
2023-05-08T14:19:25.912Z,199.98
2023-05-08T14:20:25.894Z,203.37
2023-05-08T14:21:25.902Z,201.44
2023-05-08T14:22:25.884Z,200.68
2023-05-08T14:23:25.006Z,202.61
2023-05-08T14:24:24.871Z,201.40
2023-05-08T14:25:24.846Z,202.32
2023-05-08T14:26:24.881Z,200.10
2023-05-08T14:27:25.844Z,198.93
2023-05-08T14:28:25.853Z,200.46
2023-05-08T14:29:25.822Z,200.31
2023-05-08T14:30:24.834Z,197.27
2023-05-08T14:31:24.849Z,198.59
2023-05-08T14:32:25.828Z,197.40
2023-05-08T14:33:24.838Z,196.52
2023-05-08T14:34:25.795Z,200.53
2023-05-08T14:35:25.796Z,197.39
2023-05-08T14:36:24.807Z,197.41
2023-05-08T14:37:24.785Z,199.17
2023-05-08T14:38:25.781Z,198.73
2023-05-08T14:39:24.894Z,199.01
2023-05-08T14:40:25.776Z,199.04
2023-05-08T14:41:25.743Z,196.65
2023-05-08T14:42:24.738Z,196.69
2023-05-08T14:43:25.737Z,194.92
2023-05-08T14:44:24.763Z,195.88
2023-05-08T14:45:25.795Z,193.56
2023-05-08T14:46:24.846Z,191.86
2023-05-08T14:47:25.744Z,194.07
2023-05-08T14:48:25.717Z,193.92
2023-05-08T14:49:36.863Z,194.58
2023-05-08T14:50:25.692Z,194.83
2023-05-08T14:51:24.675Z,194.91
2023-05-08T14:52:25.699Z,195.86
2023-05-08T14:53:25.873Z,195.60
2023-05-08T14:54:24.928Z,190.60
2023-05-08T14:55:25.003Z,195.07
2023-05-08T14:56:24.977Z,190.62
2023-05-08T14:57:24.626Z,192.61
2023-05-08T14:58:24.625Z,191.44
2023-05-08T14:59:24.613Z,190.41
2023-05-08T15:00:24.610Z,191.58
2023-05-08T15:01:24.656Z,191.62
2023-05-08T15:02:24.733Z,191.16
2023-05-08T15:03:24.716Z,190.46
2023-05-08T15:04:24.643Z,192.64
2023-05-08T15:05:24.868Z,188.55
2023-05-08T15:06:25.573Z,191.15
2023-05-08T15:07:24.562Z,190.30
2023-05-08T15:08:25.538Z,190.10
2023-05-08T15:09:24.536Z,189.75
2023-05-08T15:10:25.547Z,188.98
2023-05-08T15:11:24.656Z,187.54
2023-05-08T15:12:24.515Z,187.88
2023-05-08T15:13:24.555Z,190.70
2023-05-08T15:14:25.538Z,187.27
2023-05-08T15:15:24.544Z,189.49
2023-05-08T15:16:24.630Z,188.54
2023-05-08T15:17:25.626Z,187.56
2023-05-08T15:18:25.599Z,187.86
2023-05-08T15:19:25.635Z,190.64
2023-05-08T15:20:24.641Z,186.52
2023-05-08T15:21:24.663Z,190.24
2023-05-08T15:22:26.515Z,188.47
2023-05-08T15:23:24.670Z,188.89
2023-05-08T15:24:25.670Z,186.01
2023-05-08T15:25:25.686Z,189.63
2023-05-08T15:26:25.637Z,192.05
2023-05-08T15:27:24.780Z,189.75
2023-05-08T15:28:25.651Z,188.67
2023-05-08T15:29:24.726Z,187.71
